createdAt,value
2018-09-12T00:00:59.292Z,17.70
2018-09-12T00:03:27.636Z,17.60
2018-09-12T00:05:56.129Z,17.50
2018-09-12T00:08:24.556Z,17.50
2018-09-12T00:10:52.921Z,17.50
2018-09-12T00:13:21.545Z,17.50
2018-09-12T00:15:49.928Z,17.40
2018-09-12T00:18:18.310Z,17.40
2018-09-12T00:20:46.701Z,17.40
2018-09-12T00:23:15.151Z,17.40
2018-09-12T00:25:43.505Z,17.40
2018-09-12T00:28:11.855Z,17.30
2018-09-12T00:30:40.272Z,17.40
2018-09-12T00:33:09.153Z,17.30
2018-09-12T00:35:37.681Z,17.30
2018-09-12T00:38:06.136Z,17.20
2018-09-12T00:40:34.533Z,17.20
2018-09-12T00:43:03.232Z,17.20
2018-09-12T00:45:31.693Z,17.20
2018-09-12T00:48:00.085Z,17.20
2018-09-12T00:50:28.521Z,17.10
2018-09-12T00:52:57.021Z,17.00
2018-09-12T00:55:25.412Z,17.10
2018-09-12T00:57:53.756Z,17.00
2018-09-12T01:00:22.259Z,17.00
2018-09-12T01:02:50.627Z,17.00
2018-09-12T01:05:19.020Z,17.00
2018-09-12T01:07:47.417Z,17.00
2018-09-12T01:10:15.835Z,17.00
2018-09-12T01:12:44.244Z,17.00
2018-09-12T01:15:12.628Z,16.90
2018-09-12T01:17:41.036Z,17.00
2018-09-12T01:20:09.498Z,17.00
2018-09-12T01:22:37.876Z,16.90
2018-09-12T01:25:06.294Z,16.90
2018-09-12T01:27:35.043Z,17.00
2018-09-12T01:30:03.491Z,16.90
2018-09-12T01:32:31.899Z,16.90
2018-09-12T01:35:00.269Z,16.90
2018-09-12T01:37:28.632Z,16.90
2018-09-12T01:39:57.049Z,16.80
2018-09-12T01:42:25.447Z,16.80
2018-09-12T01:44:53.877Z,16.80
2018-09-12T01:47:22.374Z,16.80
2018-09-12T01:49:50.768Z,16.80
2018-09-12T01:52:19.200Z,16.70
2018-09-12T01:54:47.636Z,16.70
2018-09-12T01:57:15.978Z,16.70
2018-09-12T01:59:44.316Z,16.60
2018-09-12T02:02:12.764Z,16.60
2018-09-12T02:04:41.136Z,16.60
2018-09-12T02:07:09.504Z,16.50
2018-09-12T02:09:37.921Z,16.50
2018-09-12T02:12:06.305Z,16.50
2018-09-12T02:14:34.728Z,16.50
2018-09-12T02:17:03.155Z,16.50
2018-09-12T02:19:31.565Z,16.50
2018-09-12T02:21:59.953Z,16.40
2018-09-12T02:24:28.413Z,16.40
2018-09-12T02:26:56.773Z,16.40
2018-09-12T02:29:25.195Z,16.50
2018-09-12T02:31:53.571Z,16.40
2018-09-12T02:34:21.979Z,16.40
2018-09-12T02:36:50.499Z,16.40
2018-09-12T02:39:18.873Z,16.40
2018-09-12T02:41:47.245Z,16.40
2018-09-12T02:44:15.680Z,16.40
2018-09-12T02:46:44.054Z,16.40
2018-09-12T02:49:12.422Z,16.40
2018-09-12T02:51:40.840Z,16.40
2018-09-12T02:54:09.210Z,16.40
2018-09-12T02:56:37.669Z,16.40
2018-09-12T02:59:06.441Z,16.40
2018-09-12T03:01:34.815Z,16.40
2018-09-12T03:04:03.229Z,16.30
2018-09-12T03:06:31.603Z,16.30
2018-09-12T03:08:59.969Z,16.30
2018-09-12T03:11:28.437Z,16.20
2018-09-12T03:13:56.842Z,16.20
2018-09-12T03:16:25.239Z,16.10
2018-09-12T03:18:53.707Z,16.10
2018-09-12T03:21:22.070Z,16.00
2018-09-12T03:23:50.424Z,16.00
2018-09-12T03:26:18.901Z,16.00
2018-09-12T03:28:47.289Z,16.00
2018-09-12T03:31:15.672Z,16.00
2018-09-12T03:33:44.150Z,16.00
2018-09-12T03:36:12.626Z,16.00
2018-09-12T03:38:41.256Z,16.00
2018-09-12T03:41:09.732Z,16.00
2018-09-12T03:43:38.090Z,16.00
2018-09-12T03:46:07.065Z,16.00
2018-09-12T03:48:35.748Z,16.00
2018-09-12T03:51:04.284Z,16.00
2018-09-12T03:53:32.688Z,16.00
2018-09-12T03:56:01.119Z,16.00
2018-09-12T03:58:29.565Z,16.00
2018-09-12T04:00:57.922Z,15.90
2018-09-12T04:03:26.366Z,15.90
2018-09-12T04:05:54.739Z,15.90
2018-09-12T04:08:23.109Z,15.80
2018-09-12T04:10:51.556Z,15.80
2018-09-12T04:13:19.924Z,15.80
2018-09-12T04:15:48.292Z,15.70
2018-09-12T04:18:16.730Z,15.70
2018-09-12T04:20:45.121Z,15.70
2018-09-12T04:23:13.541Z,15.70
2018-09-12T04:25:41.986Z,15.70
2018-09-12T04:28:10.384Z,15.70
2018-09-12T04:30:38.765Z,15.60
2018-09-12T04:33:07.456Z,15.50
2018-09-12T04:35:35.857Z,15.50
2018-09-12T04:38:04.296Z,15.40
2018-09-12T04:40:32.760Z,15.30
2018-09-12T04:43:01.203Z,15.20
2018-09-12T04:45:29.584Z,15.10
2018-09-12T04:47:58.017Z,15.10
2018-09-12T04:50:26.393Z,15.10
2018-09-12T04:52:54.817Z,15.10
2018-09-12T04:55:23.291Z,15.10
2018-09-12T04:57:51.695Z,15.10
2018-09-12T05:00:20.045Z,15.20
2018-09-12T05:02:48.515Z,15.30
2018-09-12T05:05:16.989Z,15.20
2018-09-12T05:07:46.965Z,15.10
2018-09-12T05:12:37.220Z,15.10
2018-09-12T05:15:05.616Z,14.90
2018-09-12T05:17:34.013Z,14.90
2018-09-12T05:20:02.512Z,14.90
2018-09-12T05:22:30.976Z,15.00
2018-09-12T05:24:59.398Z,15.00
2018-09-12T05:27:27.833Z,14.90
2018-09-12T05:29:56.201Z,14.90
2018-09-12T05:32:24.669Z,14.90
2018-09-12T05:34:53.137Z,14.90
2018-09-12T05:37:21.636Z,14.90
2018-09-12T05:39:50.006Z,14.90
2018-09-12T05:42:18.431Z,14.80
2018-09-12T05:44:46.826Z,14.80
2018-09-12T05:47:15.221Z,14.80
2018-09-12T05:49:43.649Z,14.90
2018-09-12T05:52:12.068Z,14.90
2018-09-12T05:54:40.434Z,15.00
2018-09-12T05:57:08.873Z,15.00
2018-09-12T05:59:38.180Z,15.00
2018-09-12T06:02:13.812Z,15.00
2018-09-12T06:04:42.170Z,15.00
2018-09-12T06:07:10.741Z,14.90
2018-09-12T06:09:39.060Z,15.00
2018-09-12T06:12:08.386Z,15.10
2018-09-12T06:14:36.836Z,15.10
2018-09-12T06:17:05.315Z,15.10
2018-09-12T06:19:33.700Z,15.10
2018-09-12T06:22:02.097Z,15.10
2018-09-12T06:24:30.509Z,15.10
2018-09-12T06:29:35.702Z,15.10
2018-09-12T06:32:04.113Z,15.20
2018-09-12T06:34:32.653Z,15.20
2018-09-12T06:37:01.111Z,15.20
2018-09-12T06:39:29.469Z,15.20
2018-09-12T06:41:57.868Z,15.20
2018-09-12T06:44:26.315Z,15.20
2018-09-12T06:46:54.688Z,15.30
2018-09-12T06:49:23.084Z,15.20
2018-09-12T06:51:51.578Z,15.20
2018-09-12T06:54:19.938Z,15.20
2018-09-12T06:56:48.374Z,15.30
2018-09-12T06:59:16.816Z,15.20
2018-09-12T07:01:45.515Z,15.30
2018-09-12T07:04:13.921Z,15.40
2018-09-12T07:06:42.384Z,15.40
2018-09-12T07:09:11.445Z,15.40
2018-09-12T07:11:39.916Z,15.40
2018-09-12T07:14:08.426Z,15.50
2018-09-12T07:16:37.001Z,15.60
2018-09-12T07:19:05.508Z,15.60
2018-09-12T07:21:33.980Z,15.60
2018-09-12T07:24:02.348Z,15.50
2018-09-12T07:26:30.708Z,15.40
2018-09-12T07:28:59.105Z,15.30
2018-09-12T07:31:27.476Z,15.30
2018-09-12T07:33:55.836Z,15.40
2018-09-12T07:36:24.297Z,15.40
2018-09-12T07:38:52.720Z,15.30
2018-09-12T07:41:21.115Z,15.30
2018-09-12T07:43:49.559Z,15.20
2018-09-12T07:46:17.903Z,15.10
2018-09-12T07:48:46.284Z,15.10
2018-09-12T07:51:14.773Z,15.20
2018-09-12T07:53:43.153Z,15.10
2018-09-12T07:56:11.571Z,15.20
2018-09-12T07:58:40.966Z,15.20
2018-09-12T08:01:09.361Z,15.30
2018-09-12T08:03:37.845Z,15.30
2018-09-12T08:06:06.413Z,15.30
2018-09-12T08:08:34.789Z,15.30
2018-09-12T08:11:03.332Z,15.30
2018-09-12T08:13:31.745Z,15.30
2018-09-12T08:16:00.161Z,15.30
2018-09-12T08:18:28.517Z,15.50
2018-09-12T08:20:56.953Z,15.50
2018-09-12T08:23:25.300Z,15.50
2018-09-12T08:25:53.692Z,15.60
2018-09-12T08:28:22.130Z,15.80
2018-09-12T08:30:50.521Z,15.90
2018-09-12T08:33:18.890Z,16.00
2018-09-12T08:35:47.364Z,16.00
2018-09-12T08:38:15.753Z,16.10
2018-09-12T08:40:44.109Z,16.20
2018-09-12T08:43:12.522Z,16.20
2018-09-12T08:45:41.713Z,16.20
2018-09-12T08:48:10.154Z,16.20
2018-09-12T08:50:38.644Z,16.30
2018-09-12T08:53:07.080Z,16.50
2018-09-12T08:55:35.512Z,16.60
2018-09-12T08:58:03.945Z,16.70
2018-09-12T09:00:34.197Z,16.70
2018-09-12T09:03:03.589Z,16.80
2018-09-12T09:05:32.016Z,16.90
2018-09-12T09:08:00.373Z,17.00
2018-09-12T09:10:28.871Z,17.10
2018-09-12T09:12:57.671Z,17.20
2018-09-12T09:15:26.773Z,17.40
2018-09-12T09:17:55.426Z,17.60
2018-09-12T09:20:23.831Z,17.90
2018-09-12T09:22:53.258Z,18.00
2018-09-12T09:25:21.721Z,18.00
2018-09-12T09:27:50.101Z,17.80
2018-09-12T09:30:18.510Z,17.60
2018-09-12T09:32:46.994Z,17.50
2018-09-12T09:35:15.424Z,17.40
2018-09-12T09:37:44.529Z,17.40
2018-09-12T09:40:12.928Z,17.40
2018-09-12T09:42:41.283Z,17.40
2018-09-12T09:45:09.687Z,17.50
2018-09-12T09:47:38.119Z,17.60
2018-09-12T09:50:06.521Z,17.50
2018-09-12T09:52:34.916Z,17.50
2018-09-12T09:55:03.407Z,17.60
2018-09-12T09:57:31.759Z,17.50
2018-09-12T10:00:00.193Z,17.50
2018-09-12T10:02:33.872Z,17.40
2018-09-12T10:05:07.442Z,17.40
2018-09-12T10:07:41.408Z,17.40
2018-09-12T10:10:09.833Z,17.30
2018-09-12T10:12:38.225Z,17.20
2018-09-12T10:15:07.041Z,17.20
2018-09-12T10:17:35.979Z,17.20
2018-09-12T10:20:04.425Z,17.20
2018-09-12T10:22:32.949Z,17.20
2018-09-12T10:25:01.340Z,17.10
2018-09-12T10:27:29.765Z,17.10
2018-09-12T10:29:58.217Z,17.00
2018-09-12T10:32:26.749Z,17.00
2018-09-12T10:34:55.181Z,16.90
2018-09-12T10:37:23.620Z,16.90
2018-09-12T10:39:52.004Z,16.90
2018-09-12T10:42:20.373Z,16.90
2018-09-12T10:44:48.917Z,16.80
2018-09-12T10:47:17.388Z,16.80
2018-09-12T10:49:45.880Z,16.70
2018-09-12T10:52:14.293Z,16.60
2018-09-12T10:54:42.697Z,16.60
2018-09-12T10:57:11.116Z,16.70
2018-09-12T10:59:39.565Z,16.80
2018-09-12T11:02:07.947Z,16.90
2018-09-12T11:04:36.323Z,17.00
2018-09-12T11:07:04.808Z,17.00
2018-09-12T11:09:33.229Z,17.10
2018-09-12T11:12:01.593Z,17.20
2018-09-12T11:14:29.992Z,17.40
2018-09-12T11:16:58.352Z,17.50
2018-09-12T11:19:26.732Z,17.60
2018-09-12T11:21:55.140Z,17.60
2018-09-12T11:24:23.517Z,17.60
2018-09-12T11:26:51.909Z,17.60
2018-09-12T11:29:20.355Z,17.70
2018-09-12T11:31:48.712Z,17.70
2018-09-12T11:39:12.299Z,18.00
2018-09-12T11:41:40.681Z,18.30
2018-09-12T11:44:09.032Z,18.40
2018-09-12T11:46:37.477Z,18.50
2018-09-12T11:49:05.953Z,18.50
2018-09-12T11:51:34.228Z,18.50
2018-09-12T11:54:02.641Z,18.50
2018-09-12T11:56:30.997Z,18.40
2018-09-12T11:58:59.465Z,18.40
2018-09-12T12:01:27.876Z,18.40
2018-09-12T12:03:56.268Z,18.50
2018-09-12T12:06:24.653Z,18.50
2018-09-12T12:08:53.108Z,18.50
2018-09-12T12:11:21.528Z,18.40
2018-09-12T12:13:49.917Z,18.40
2018-09-12T12:16:18.512Z,18.50
2018-09-12T12:18:46.882Z,18.50
2018-09-12T12:21:15.259Z,18.50
2018-09-12T12:23:43.703Z,18.50
2018-09-12T12:26:12.141Z,18.50
2018-09-12T12:28:40.573Z,18.40
2018-09-12T12:31:08.996Z,18.30
2018-09-12T12:33:37.338Z,18.20
2018-09-12T12:36:05.817Z,18.00
2018-09-12T12:38:34.315Z,17.90
2018-09-12T12:41:02.780Z,17.80
2018-09-12T12:43:31.205Z,17.80
2018-09-12T12:45:59.642Z,18.00
2018-09-12T12:48:28.052Z,18.10
2018-09-12T12:50:56.606Z,18.30
2018-09-12T12:53:25.096Z,18.40
2018-09-12T12:55:53.507Z,18.40
2018-09-12T12:58:22.089Z,18.40
2018-09-12T13:00:50.563Z,18.40
2018-09-12T13:03:18.941Z,18.40
2018-09-12T13:05:47.389Z,18.50
2018-09-12T13:08:15.964Z,18.40
2018-09-12T13:10:44.386Z,18.30
2018-09-12T13:13:12.794Z,18.10
2018-09-12T13:15:41.228Z,17.90
2018-09-12T13:18:09.637Z,17.70
2018-09-12T13:20:38.014Z,17.50
2018-09-12T13:23:06.557Z,17.30
2018-09-12T13:25:34.951Z,17.20
2018-09-12T13:28:03.361Z,17.10
2018-09-12T13:30:31.821Z,17.00
2018-09-12T13:33:00.269Z,17.00
2018-09-12T13:35:28.609Z,16.90
2018-09-12T13:37:57.088Z,16.90
2018-09-12T13:40:25.481Z,16.90
2018-09-12T13:42:53.947Z,16.90
2018-09-12T13:45:22.417Z,16.90
2018-09-12T13:47:50.785Z,16.80
2018-09-12T13:50:19.173Z,16.80
2018-09-12T13:52:47.660Z,16.60
2018-09-12T13:55:16.085Z,16.50
2018-09-12T13:57:44.716Z,16.50
2018-09-12T14:00:13.177Z,16.50
2018-09-12T14:02:41.576Z,16.40
2018-09-12T14:05:09.987Z,16.50
2018-09-12T14:07:38.397Z,16.60
2018-09-12T14:10:06.796Z,16.70
2018-09-12T14:12:35.188Z,16.70
2018-09-12T14:15:03.669Z,16.80
2018-09-12T14:17:32.091Z,16.90
2018-09-12T14:20:00.704Z,17.00
2018-09-12T14:22:29.128Z,17.10
2018-09-12T14:24:57.542Z,17.10
2018-09-12T14:27:26.021Z,17.10
2018-09-12T14:29:54.495Z,17.00
2018-09-12T14:32:22.974Z,17.10
2018-09-12T14:34:51.278Z,17.10
2018-09-12T14:37:19.802Z,17.20
2018-09-12T14:39:48.204Z,17.30
2018-09-12T14:42:16.568Z,17.30
2018-09-12T14:44:44.993Z,17.30
2018-09-12T14:47:13.406Z,17.40
2018-09-12T14:49:41.860Z,17.40
2018-09-12T14:52:10.284Z,17.40
2018-09-12T14:54:38.722Z,17.40
2018-09-12T14:57:07.152Z,17.50
2018-09-12T14:59:35.641Z,17.50
2018-09-12T15:02:04.103Z,17.40
2018-09-12T15:04:32.497Z,17.30
2018-09-12T15:07:00.951Z,17.20
2018-09-12T15:09:29.308Z,17.20
2018-09-12T15:11:57.669Z,17.10
2018-09-12T15:14:26.099Z,17.10
2018-09-12T15:16:54.513Z,17.10
2018-09-12T15:19:22.884Z,17.10
2018-09-12T15:21:51.280Z,17.10
2018-09-12T15:24:20.408Z,17.20
2018-09-12T15:26:48.955Z,17.10
2018-09-12T15:29:17.439Z,17.20
2018-09-12T15:31:45.885Z,17.20
2018-09-12T15:34:14.226Z,17.20
2018-09-12T15:36:42.680Z,17.10
2018-09-12T15:39:12.199Z,17.10
2018-09-12T15:41:40.794Z,17.00
2018-09-12T15:44:09.206Z,17.00
2018-09-12T15:46:37.601Z,16.90
2018-09-12T15:49:06.181Z,16.90
2018-09-12T15:51:34.617Z,16.80
2018-09-12T15:54:03.186Z,16.80
2018-09-12T15:56:31.568Z,16.80
2018-09-12T15:59:00.047Z,16.80
2018-09-12T16:01:28.518Z,16.80
2018-09-12T16:03:57.030Z,16.80
2018-09-12T16:06:25.452Z,16.80
2018-09-12T16:08:53.816Z,16.70
2018-09-12T16:11:22.185Z,16.60
2018-09-12T16:13:51.156Z,16.60
2018-09-12T16:16:19.634Z,16.50
2018-09-12T16:18:48.049Z,16.50
2018-09-12T16:21:16.738Z,16.40
2018-09-12T16:23:45.168Z,16.30
2018-09-12T16:26:13.565Z,16.30
2018-09-12T16:28:41.972Z,16.30
2018-09-12T16:31:10.367Z,16.30
2018-09-12T16:33:38.720Z,16.30
2018-09-12T16:36:07.180Z,16.20
2018-09-12T16:38:35.645Z,16.20
2018-09-12T16:41:04.057Z,16.20
2018-09-12T16:43:32.529Z,16.10
2018-09-12T16:46:00.900Z,16.10
2018-09-12T16:48:29.398Z,16.10
2018-09-12T16:50:57.960Z,16.10
2018-09-12T16:53:26.406Z,16.10
2018-09-12T16:55:54.861Z,16.10
2018-09-12T16:58:23.448Z,16.10
2018-09-12T17:00:51.970Z,16.00
2018-09-12T17:03:20.664Z,16.00
2018-09-12T17:05:49.216Z,16.00
2018-09-12T17:08:17.755Z,16.00
2018-09-12T17:10:46.300Z,15.90
2018-09-12T17:13:14.985Z,15.90
2018-09-12T17:15:43.720Z,15.90
2018-09-12T17:18:12.330Z,15.90
2018-09-12T17:20:41.019Z,15.90
2018-09-12T17:23:09.640Z,15.90
2018-09-12T17:25:38.061Z,15.90
2018-09-12T17:28:06.643Z,16.00
2018-09-12T17:30:35.071Z,15.90
2018-09-12T17:33:03.485Z,15.90
2018-09-12T17:35:31.933Z,15.90
2018-09-12T17:38:00.584Z,15.90
2018-09-12T17:40:29.043Z,15.80
2018-09-12T17:42:58.051Z,15.70
2018-09-12T17:45:26.467Z,15.70
2018-09-12T17:47:54.967Z,15.60
2018-09-12T17:50:23.468Z,15.60
2018-09-12T17:52:52.843Z,15.50
2018-09-12T17:55:21.562Z,15.50
2018-09-12T17:57:50.793Z,15.40
2018-09-12T18:00:19.423Z,15.30
2018-09-12T18:02:48.245Z,15.20
2018-09-12T18:05:16.851Z,15.20
2018-09-12T18:07:45.381Z,15.10
2018-09-12T18:10:14.017Z,15.00
2018-09-12T18:12:42.755Z,15.00
2018-09-12T18:15:11.516Z,15.00
2018-09-12T18:17:40.053Z,15.00
2018-09-12T18:20:08.866Z,15.00
2018-09-12T18:22:37.573Z,15.00
2018-09-12T18:25:06.020Z,15.00
2018-09-12T18:27:34.451Z,15.10
2018-09-12T18:30:02.869Z,15.00
2018-09-12T18:32:31.332Z,15.00
2018-09-12T18:35:00.385Z,15.00
2018-09-12T18:37:28.835Z,15.00
2018-09-12T18:39:57.497Z,14.90
2018-09-12T18:42:25.958Z,14.90
2018-09-12T18:44:54.317Z,14.80
2018-09-12T18:47:22.729Z,14.80
2018-09-12T18:49:51.210Z,14.80
2018-09-12T18:52:20.226Z,14.70
2018-09-12T18:54:48.693Z,14.70
2018-09-12T18:57:17.189Z,14.70
2018-09-12T18:59:45.614Z,14.60
2018-09-12T19:02:15.239Z,14.60
2018-09-12T19:04:43.775Z,14.60
2018-09-12T19:07:12.327Z,14.50
2018-09-12T19:09:40.629Z,14.50
2018-09-12T19:12:09.232Z,14.60
2018-09-12T19:14:37.639Z,14.50
2018-09-12T19:17:06.068Z,14.50
2018-09-12T19:19:34.524Z,14.60
2018-09-12T19:22:02.927Z,14.50
2018-09-12T19:24:31.276Z,14.50
2018-09-12T19:26:59.744Z,14.40
2018-09-12T19:29:28.120Z,14.40
2018-09-12T19:31:56.501Z,14.40
2018-09-12T19:34:24.936Z,14.30
2018-09-12T19:36:53.691Z,14.30
2018-09-12T19:39:22.948Z,14.20
2018-09-12T19:41:51.741Z,14.20
2018-09-12T19:44:20.732Z,14.20
2018-09-12T19:46:50.924Z,14.20
2018-09-12T19:49:21.042Z,14.10
2018-09-12T19:51:49.524Z,14.10
2018-09-12T19:54:18.236Z,14.10
2018-09-12T19:56:46.960Z,14.10
2018-09-12T19:59:15.505Z,14.10
2018-09-12T20:01:44.198Z,14.10
2018-09-12T20:04:12.905Z,14.10
2018-09-12T20:06:41.497Z,14.10
2018-09-12T20:09:11.489Z,14.00
2018-09-12T20:11:40.599Z,14.00
2018-09-12T20:14:09.516Z,14.00
2018-09-12T20:16:38.147Z,14.00
2018-09-12T20:19:07.318Z,14.00
2018-09-12T20:21:35.746Z,14.00
2018-09-12T20:24:04.559Z,13.90
2018-09-12T20:26:33.076Z,13.90
2018-09-12T20:29:01.528Z,13.90
2018-09-12T20:31:30.278Z,13.90
2018-09-12T20:33:59.037Z,13.90
2018-09-12T20:36:27.419Z,13.90
2018-09-12T20:38:55.856Z,13.90
2018-09-12T20:41:24.231Z,13.90
2018-09-12T20:43:52.629Z,13.80
2018-09-12T20:46:21.100Z,13.80
2018-09-12T20:48:49.490Z,13.80
2018-09-12T20:51:17.916Z,13.80
2018-09-12T20:53:46.371Z,13.80
2018-09-12T20:56:14.780Z,13.80
2018-09-12T20:58:43.201Z,13.80
2018-09-12T21:01:11.636Z,13.80
2018-09-12T21:03:40.028Z,13.80
2018-09-12T21:06:08.406Z,13.70
2018-09-12T21:08:36.957Z,13.80
2018-09-12T21:11:05.379Z,13.80
2018-09-12T21:13:33.911Z,13.80
2018-09-12T21:16:02.342Z,13.80
2018-09-12T21:18:30.709Z,13.80
2018-09-12T21:20:59.606Z,13.70
2018-09-12T21:23:28.002Z,13.70
2018-09-12T21:25:56.432Z,13.70
2018-09-12T21:28:24.921Z,13.70
2018-09-12T21:30:53.388Z,13.70
2018-09-12T21:33:21.793Z,13.70
2018-09-12T21:35:50.141Z,13.60
2018-09-12T21:38:18.637Z,13.60
2018-09-12T21:40:47.056Z,13.60
2018-09-12T21:43:15.459Z,13.60
2018-09-12T21:45:43.872Z,13.60
2018-09-12T21:48:12.349Z,13.60
2018-09-12T21:50:40.708Z,13.60
2018-09-12T21:53:09.140Z,13.60
2018-09-12T21:55:37.583Z,13.50
2018-09-12T21:58:06.308Z,13.60
2018-09-12T22:00:34.793Z,13.60
2018-09-12T22:03:03.184Z,13.60
2018-09-12T22:05:31.554Z,13.60
2018-09-12T22:08:00.507Z,13.60
2018-09-12T22:10:28.884Z,13.60
2018-09-12T22:12:57.293Z,13.60
2018-09-12T22:15:25.761Z,13.60
2018-09-12T22:17:54.113Z,13.60
2018-09-12T22:20:22.516Z,13.60
2018-09-12T22:22:50.956Z,13.60
2018-09-12T22:25:19.351Z,13.60
2018-09-12T22:27:47.745Z,13.60
2018-09-12T22:30:16.156Z,13.60
2018-09-12T22:32:44.529Z,13.60
2018-09-12T22:35:12.899Z,13.60
2018-09-12T22:37:41.292Z,13.50
2018-09-12T22:40:09.792Z,13.50
2018-09-12T22:42:38.182Z,13.50
2018-09-12T22:45:06.986Z,13.50
2018-09-12T22:47:35.480Z,13.50
2018-09-12T22:50:04.018Z,13.50
2018-09-12T22:52:32.425Z,13.50
2018-09-12T22:55:01.090Z,13.50
2018-09-12T22:57:29.704Z,13.50
2018-09-12T22:59:58.137Z,13.50
2018-09-12T23:02:26.531Z,13.60
2018-09-12T23:04:54.861Z,13.60
2018-09-12T23:07:23.333Z,13.60
2018-09-12T23:09:51.689Z,13.60
2018-09-12T23:12:20.137Z,13.60
2018-09-12T23:14:48.586Z,13.60
2018-09-12T23:17:17.049Z,13.60
2018-09-12T23:19:45.476Z,13.60
2018-09-12T23:22:13.898Z,13.60
2018-09-12T23:24:42.301Z,13.60
2018-09-12T23:27:10.664Z,13.60
2018-09-12T23:29:39.098Z,13.60
2018-09-12T23:32:07.502Z,13.60
2018-09-12T23:34:35.954Z,13.60
2018-09-12T23:37:04.393Z,13.60
2018-09-12T23:39:32.804Z,13.60
2018-09-12T23:42:01.528Z,13.60
2018-09-12T23:44:29.948Z,13.60
2018-09-12T23:46:58.329Z,13.60
2018-09-12T23:49:26.688Z,13.50
2018-09-12T23:51:55.135Z,13.50
2018-09-12T23:54:23.538Z,13.50
2018-09-12T23:56:51.904Z,13.50
2018-09-12T23:59:20.329Z,13.50
